Time;durP1;ratioP1;P1;durP2;ratioP2;P2;SDS_P1;SDS_P2;PMS_P1;PMS_P2;Temp;Humidity;BMP_temperature;BMP_pressure;BME280_temperature;BME280_humidity;BME280_pressure;Samples;Min_cycle;Max_cycle;Signal;HPM_P1;HPM_P2
2021/12/14 00:01:08;;;;;;;39.75;24.90;;;;;;;4.18;63.20;102335.91;5050476;28;20087;-59
2021/12/14 00:03:39;;;;;;;41.00;24.88;;;;;;;4.19;63.35;102335.91;5053089;28;20539;-58
2021/12/14 00:06:07;;;;;;;39.78;24.50;;;;;;;4.18;63.19;102348.91;5052881;28;20472;-59
2021/12/14 00:08:46;;;;;;;41.90;24.23;;;;;;;4.18;62.99;102348.91;5044030;28;20052;-63
2021/12/14 00:16:41;;;;;;;45.50;26.27;;;;;;;4.11;63.24;102350.63;5045460;28;20053;-69
2021/12/14 00:19:08;;;;;;;49.47;24.90;;;;;;;4.07;63.43;102348.94;5052563;28;20060;-58
2021/12/14 00:21:35;;;;;;;47.15;25.02;;;;;;;4.00;63.46;102348.09;5052729;28;20090;-59
2021/12/14 00:24:10;;;;;;;40.63;24.48;;;;;;;3.96;63.45;102343.78;5045745;28;20049;-58
2021/12/14 00:26:41;;;;;;;44.00;24.50;;;;;;;3.92;63.31;102353.31;5038697;28;20058;-59
2021/12/14 00:29:12;;;;;;;42.20;24.67;;;;;;;3.91;63.30;102353.28;5050653;28;20046;-59
2021/12/14 00:31:39;;;;;;;37.13;22.85;;;;;;;3.91;63.16;102351.59;5043254;28;20095;-59
2021/12/14 00:34:08;;;;;;;35.40;22.33;;;;;;;3.92;63.00;102353.31;5051119;28;20596;-59
2021/12/14 00:36:37;;;;;;;36.88;22.65;;;;;;;3.89;63.07;102363.69;5051589;28;20041;-60
2021/12/14 00:39:07;;;;;;;36.67;22.92;;;;;;;3.95;63.03;102351.56;5050582;28;20087;-59
2021/12/14 00:41:38;;;;;;;37.20;22.50;;;;;;;3.93;62.96;102356.75;5052181;28;20045;-69
2021/12/14 00:44:06;;;;;;;34.55;20.55;;;;;;;3.92;63.09;102352.44;5051998;28;20441;-60
2021/12/14 00:46:35;;;;;;;30.17;20.05;;;;;;;3.96;62.98;102361.97;5052410;28;20047;-59
2021/12/14 00:49:08;;;;;;;37.30;20.83;;;;;;;3.96;63.01;102354.19;5047316;28;20045;-59
2021/12/14 00:51:35;;;;;;;35.88;19.75;;;;;;;3.94;63.11;102355.91;5044138;28;20102;-60
2021/12/14 00:54:07;;;;;;;38.50;21.00;;;;;;;3.91;63.13;102355.88;5052052;28;20041;-59
2021/12/14 00:56:34;;;;;;;36.90;21.63;;;;;;;3.85;63.24;102361.97;5043712;28;20053;-59
2021/12/14 00:59:04;;;;;;;33.67;21.90;;;;;;;3.80;63.25;102363.72;5049087;28;20091;-59
2021/12/14 01:01:36;;;;;;;34.40;21.10;;;;;;;3.78;63.25;102369.78;5042539;28;20064;-62
2021/12/14 01:04:08;;;;;;;36.67;21.05;;;;;;;3.78;63.05;102367.19;5048530;28;20077;-59
2021/12/14 01:06:44;;;;;;;37.25;22.75;;;;;;;3.80;63.05;102362.88;5052055;28;20045;-68
2021/12/14 01:09:13;;;;;;;35.00;21.13;;;;;;;3.78;63.04;102365.44;5051831;28;20481;-59
2021/12/14 01:11:44;;;;;;;32.67;19.83;;;;;;;3.76;63.10;102355.06;5051969;28;20558;-59
2021/12/14 01:14:17;;;;;;;32.03;19.88;;;;;;;3.77;62.89;102345.53;5037996;28;20049;-69
2021/12/14 01:16:55;;;;;;;32.95;19.05;;;;;;;3.74;62.95;102353.34;5051927;28;20098;-60
2021/12/14 01:19:29;;;;;;;34.95;20.77;;;;;;;3.73;62.93;102342.13;5052013;28;20049;-59
2021/12/14 01:27:34;;;;;;;32.38;20.05;;;;;;;3.72;63.04;102340.38;5052136;28;20037;-61
2021/12/14 01:30:13;;;;;;;34.78;20.13;;;;;;;3.69;63.09;102348.16;5047485;28;20501;-59
2021/12/14 01:32:44;;;;;;;32.08;19.05;;;;;;;3.68;63.14;102342.97;5051861;28;20041;-59
2021/12/14 01:35:14;;;;;;;31.50;19.83;;;;;;;3.65;63.46;102343.84;5051687;28;20060;-63
2021/12/14 01:37:48;;;;;;;29.80;19.02;;;;;;;3.68;63.31;102332.59;5051660;28;20478;-59
2021/12/14 01:40:46;;;;;;;32.60;21.00;;;;;;;3.66;63.45;102330.00;5051591;28;20091;-59
2021/12/14 01:43:06;;;;;;;30.98;19.42;;;;;;;3.66;63.49;102319.63;5054773;28;20049;-62
2021/12/14 01:45:33;;;;;;;28.10;18.88;;;;;;;3.68;63.58;102330.88;5055135;28;20186;-59
2021/12/14 01:48:00;;;;;;;29.50;18.13;;;;;;;3.70;63.49;102330.88;5051923;28;20048;-60
2021/12/14 01:50:43;;;;;;;29.33;19.85;;;;;;;3.69;63.67;102331.72;5055619;28;20111;-60
2021/12/14 01:53:13;;;;;;;29.98;18.20;;;;;;;3.66;63.67;102334.34;5055606;28;20045;-60
2021/12/14 01:55:43;;;;;;;29.75;17.83;;;;;;;3.65;63.60;102332.59;5055565;28;20049;-59
2021/12/14 01:58:11;;;;;;;32.00;19.45;;;;;;;3.58;63.81;102336.94;5055698;28;20056;-69
2021/12/14 02:00:46;;;;;;;36.35;19.60;;;;;;;3.53;63.93;102333.47;5055415;28;20099;-60
2021/12/14 02:03:15;;;;;;;30.60;19.57;;;;;;;3.47;63.72;102349.94;5049346;28;20045;-63
2021/12/14 02:05:47;;;;;;;31.70;19.75;;;;;;;3.46;63.82;102355.97;5051421;28;20049;-59
2021/12/14 02:08:40;;;;;;;35.20;20.33;;;;;;;3.45;63.59;102353.41;5055499;28;20098;-59
2021/12/14 02:11:08;;;;;;;32.50;19.63;;;;;;;3.43;63.54;102349.06;5053805;28;20049;-60
2021/12/14 02:13:36;;;;;;;29.73;19.27;;;;;;;3.41;63.45;102340.41;5055117;28;20041;-60
2021/12/14 02:16:05;;;;;;;32.13;19.48;;;;;;;3.38;63.64;102348.22;5054892;28;20052;-69
2021/12/14 02:18:56;;;;;;;29.60;19.33;;;;;;;3.37;63.65;102343.88;5055016;28;20049;-58
2021/12/14 02:21:24;;;;;;;28.33;17.48;;;;;;;3.39;63.56;102343.88;5042595;28;20060;-59
2021/12/14 02:23:53;;;;;;;30.25;19.08;;;;;;;3.38;63.63;102340.41;5055160;28;20103;-58
2021/12/14 02:26:25;;;;;;;33.92;18.02;;;;;;;3.38;63.52;102332.63;5041143;28;20049;-68
2021/12/14 02:28:54;;;;;;;29.73;18.48;;;;;;;3.39;63.56;102334.38;5041633;28;20482;-59
2021/12/14 02:31:24;;;;;;;31.00;19.42;;;;;;;3.38;63.40;102342.16;5054982;28;20048;-61
2021/12/14 02:33:55;;;;;;;37.90;18.75;;;;;;;3.36;63.65;102338.69;5054747;28;20496;-58
2021/12/14 02:36:34;;;;;;;30.00;18.45;;;;;;;3.38;63.54;102329.19;5053117;28;20075;-59
2021/12/14 02:39:07;;;;;;;31.80;19.35;;;;;;;3.37;63.66;102327.47;5040948;28;20094;-59
2021/12/14 02:41:44;;;;;;;28.00;17.98;;;;;;;3.32;63.62;102335.22;5054735;28;20562;-60
2021/12/14 02:44:12;;;;;;;26.42;17.73;;;;;;;3.27;63.74;102332.63;5054657;28;20045;-62
2021/12/14 02:46:45;;;;;;;30.08;18.85;;;;;;;3.25;63.48;102324.00;5054749;28;20045;-59
2021/12/14 02:49:18;;;;;;;30.35;19.05;;;;;;;3.27;63.64;102334.38;5054772;28;20107;-59
2021/12/14 02:51:49;;;;;;;28.58;17.90;;;;;;;3.25;63.60;102329.19;5052944;28;20046;-61
2021/12/14 02:54:25;;;;;;;32.83;18.38;;;;;;;3.21;63.70;102329.19;5053390;28;20041;-59
2021/12/14 02:57:02;;;;;;;33.10;19.00;;;;;;;3.22;63.51;102324.00;5054350;28;20103;-60
2021/12/14 02:59:32;;;;;;;32.65;18.67;;;;;;;3.22;63.76;102328.31;5054476;28;20052;-58
2021/12/14 03:02:05;;;;;;;27.48;18.60;;;;;;;3.24;63.61;102337.84;5054257;28;20103;-67
2021/12/14 03:04:37;;;;;;;28.30;17.58;;;;;;;3.21;63.76;102342.16;5054517;28;20127;-69
2021/12/14 03:07:04;;;;;;;32.17;18.20;;;;;;;3.15;63.88;102327.47;5054349;28;20088;-59
2021/12/14 03:12:40;;;;;;;27.58;16.83;;;;;;;3.23;63.70;102343.03;5044650;28;20115;-59
2021/12/14 03:15:21;;;;;;;27.45;18.55;;;;;;;3.22;63.97;102339.56;5053925;28;20049;-65
2021/12/14 03:17:52;;;;;;;31.15;18.33;;;;;;;3.22;63.66;102333.50;5053824;28;20103;-61
2021/12/14 03:20:31;;;;;;;33.58;18.98;;;;;;;3.21;63.88;102329.19;5053965;28;20049;-69
2021/12/14 03:23:03;;;;;;;33.97;18.85;;;;;;;3.20;64.09;102336.13;5053721;28;20041;-59
2021/12/14 03:25:30;;;;;;;27.95;17.10;;;;;;;3.17;63.95;102333.50;5047039;28;20049;-60
2021/12/14 03:27:59;;;;;;;27.95;17.75;;;;;;;3.15;64.17;102330.06;5046879;28;20675;-59
2021/12/14 03:30:26;;;;;;;30.90;18.38;;;;;;;3.18;64.13;102318.81;5053934;28;20432;-59
2021/12/14 03:32:59;;;;;;;26.27;16.63;;;;;;;3.18;64.12;102324.00;5053690;28;20045;-63
2021/12/14 03:35:44;;;;;;;27.48;17.35;;;;;;;3.16;63.96;102328.31;5053583;28;20041;-60
2021/12/14 03:38:18;;;;;;;28.70;18.17;;;;;;;3.14;64.16;102323.13;5053721;28;20469;-64
2021/12/14 03:40:55;;;;;;;25.35;16.17;;;;;;;3.14;64.09;102332.66;5051133;28;20045;-63
2021/12/14 03:43:22;;;;;;;34.30;18.05;;;;;;;3.10;64.15;102334.38;5053162;28;20051;-59
2021/12/14 03:45:50;;;;;;;37.40;17.25;;;;;;;3.09;64.15;102343.03;5053557;28;20091;-60
2021/12/14 03:48:17;;;;;;;41.75;18.98;;;;;;;3.02;64.16;102331.78;5053791;28;20076;-59
2021/12/14 03:50:44;;;;;;;30.23;17.52;;;;;;;3.00;64.13;102349.06;5053403;28;20052;-59
2021/12/14 03:53:12;;;;;;;26.35;17.27;;;;;;;2.97;63.96;102350.78;5053408;28;20448;-59
2021/12/14 03:55:44;;;;;;;27.33;17.30;;;;;;;2.96;64.03;102356.84;5053255;28;20044;-64
2021/12/14 03:58:15;;;;;;;28.83;16.20;;;;;;;2.94;63.96;102344.72;5048969;28;20449;-70
2021/12/14 04:00:47;;;;;;;30.95;16.88;;;;;;;2.94;63.91;102333.50;5043130;28;20048;-58
2021/12/14 04:03:16;;;;;;;26.95;17.55;;;;;;;2.95;63.80;102343.00;5040051;28;20178;-59
2021/12/14 04:05:44;;;;;;;26.85;17.20;;;;;;;2.94;63.71;102336.94;5038954;28;20084;-59
2021/12/14 04:08:13;;;;;;;31.63;17.02;;;;;;;2.96;63.60;102328.31;5041707;28;20102;-59
2021/12/14 04:10:42;;;;;;;28.92;17.60;;;;;;;2.92;63.93;102335.22;5038008;28;20046;-59
2021/12/14 04:13:15;;;;;;;29.50;17.75;;;;;;;2.93;63.86;102335.25;5041972;28;20041;-60
2021/12/14 04:15:42;;;;;;;31.60;17.20;;;;;;;2.97;63.71;102338.72;5036136;28;20057;-60
2021/12/14 04:18:08;;;;;;;27.35;17.05;;;;;;;2.98;63.83;102337.81;5042361;28;20444;-59
2021/12/14 04:20:38;;;;;;;28.95;18.27;;;;;;;2.97;63.87;102340.41;5037185;28;20108;-59
2021/12/14 04:23:20;;;;;;;29.73;17.05;;;;;;;2.96;63.91;102334.38;5041694;28;20099;-65
2021/12/14 04:25:48;;;;;;;26.50;17.58;;;;;;;2.97;63.83;102338.72;5033194;28;20045;-59
2021/12/14 04:28:21;;;;;;;25.67;17.45;;;;;;;2.95;63.93;102337.81;5044798;28;20049;-60
2021/12/14 04:30:48;;;;;;;31.10;18.00;;;;;;;2.96;64.21;102333.50;5046009;28;20049;-58
2021/12/14 04:33:24;;;;;;;28.77;17.85;;;;;;;2.94;64.24;102334.34;5049175;28;20517;-59
2021/12/14 04:35:51;;;;;;;26.92;17.23;;;;;;;2.97;64.29;102335.22;5049147;28;20049;-69
2021/12/14 04:38:25;;;;;;;29.30;17.27;;;;;;;2.93;64.32;102347.31;5049046;28;20057;-59
2021/12/14 04:52:15;;;;;;;30.48;17.70;;;;;;;2.91;64.73;102359.44;5049104;28;20320;-60
2021/12/14 04:54:44;;;;;;;30.45;17.90;;;;;;;2.92;64.35;102354.25;5048928;28;20114;-59
2021/12/14 04:57:23;;;;;;;30.50;18.40;;;;;;;2.88;64.47;102364.59;5048767;28;20079;-66
2021/12/14 04:59:53;;;;;;;31.27;19.33;;;;;;;2.82;64.82;102360.28;5048587;28;20115;-59
2021/12/14 05:02:32;;;;;;;30.50;18.50;;;;;;;2.80;64.60;102358.56;5045068;28;20490;-59
2021/12/14 05:05:00;;;;;;;29.83;18.30;;;;;;;2.77;64.72;102367.19;5048764;28;20060;-60
2021/12/14 05:07:47;;;;;;;31.48;18.55;;;;;;;2.78;64.55;102355.94;5048632;28;20563;-60
2021/12/14 05:10:19;;;;;;;30.85;17.45;;;;;;;2.76;64.65;102360.28;5048686;28;20493;-60
2021/12/14 05:12:47;;;;;;;29.50;18.17;;;;;;;2.75;64.62;102358.53;5048566;28;20048;-59
2021/12/14 05:15:16;;;;;;;36.95;19.77;;;;;;;2.77;64.49;102354.22;5048534;28;20041;-60
2021/12/14 05:17:45;;;;;;;30.40;18.70;;;;;;;2.75;64.51;102361.97;5048102;28;20493;-60
2021/12/14 05:20:14;;;;;;;30.63;19.73;;;;;;;2.74;64.64;102365.47;5043873;28;20461;-59
2021/12/14 05:22:44;;;;;;;35.13;20.38;;;;;;;2.74;64.83;102361.97;5044322;28;20045;-62
2021/12/14 05:25:20;;;;;;;33.08;18.77;;;;;;;2.74;64.75;102370.63;5043907;28;20049;-60
2021/12/14 05:27:52;;;;;;;36.65;19.02;;;;;;;2.73;64.92;102374.09;5040084;28;20270;-60
2021/12/14 05:30:24;;;;;;;30.90;19.33;;;;;;;2.75;64.61;102385.31;5048448;28;20049;-69
2021/12/14 05:33:01;;;;;;;33.65;19.02;;;;;;;2.74;64.76;102393.09;5045085;28;20037;-60
2021/12/14 05:35:28;;;;;;;30.45;18.80;;;;;;;2.72;64.79;102385.31;5031840;28;20084;-61
2021/12/14 05:37:56;;;;;;;31.45;18.70;;;;;;;2.69;65.00;102390.50;5039979;28;20080;-62
2021/12/14 05:43:09;;;;;;;33.40;18.73;;;;;;;2.57;64.87;102395.63;5043141;28;20045;-66
2021/12/14 05:46:01;;;;;;;35.45;18.27;;;;;;;2.51;64.86;102404.25;5046981;28;20053;-59
2021/12/14 05:48:32;;;;;;;30.83;18.95;;;;;;;2.51;64.60;102400.78;5048245;28;20057;-59
2021/12/14 05:51:02;;;;;;;35.53;19.23;;;;;;;2.53;64.35;102401.69;5043079;28;20103;-61
2021/12/14 05:53:32;;;;;;;28.30;17.38;;;;;;;2.52;64.30;102397.34;5039243;28;20045;-62
2021/12/14 05:56:01;;;;;;;32.35;18.35;;;;;;;2.51;64.31;102403.38;5032789;28;20042;-66
2021/12/14 05:58:29;;;;;;;28.08;17.75;;;;;;;2.47;64.07;102404.25;5035391;28;20049;-59
2021/12/14 06:00:59;;;;;;;35.00;18.85;;;;;;;2.50;64.12;102402.53;5034570;28;20048;-57
2021/12/14 06:03:32;;;;;;;32.75;19.88;;;;;;;2.55;64.03;102394.75;5047315;28;20041;-57
2021/12/14 06:06:00;;;;;;;31.63;19.85;;;;;;;2.55;63.86;102394.75;5045435;28;20033;-58
2021/12/14 06:08:31;;;;;;;29.75;19.20;;;;;;;2.56;64.00;102399.94;5046799;28;20429;-57
2021/12/14 06:10:59;;;;;;;32.33;18.70;;;;;;;2.57;63.88;102395.63;5044211;28;20045;-57
2021/12/14 06:13:55;;;;;;;31.00;18.35;;;;;;;2.51;63.77;102386.09;5046572;28;20087;-57
2021/12/14 06:16:26;;;;;;;27.97;17.67;;;;;;;2.52;64.08;102392.16;5042266;28;20472;-58
2021/12/14 06:19:10;;;;;;;34.10;19.63;;;;;;;2.51;64.05;102395.59;5034254;28;20717;-57
2021/12/14 06:21:37;;;;;;;32.38;18.95;;;;;;;2.49;63.91;102405.97;5028720;28;20041;-58
2021/12/14 06:24:06;;;;;;;33.40;19.75;;;;;;;2.52;63.78;102411.16;5028673;28;20041;-58
2021/12/14 06:26:40;;;;;;;32.92;19.40;;;;;;;2.59;63.48;102414.63;5029015;28;20081;-57
2021/12/14 06:29:16;;;;;;;31.75;18.88;;;;;;;2.51;63.77;102409.41;5037986;28;20131;-57
2021/12/14 06:31:43;;;;;;;;;;;;;;;2.48;63.82;102411.16;5051952;28;20556;-57
2021/12/14 06:34:30;;;;;;;35.08;18.85;;;;;;;2.52;63.82;102410.31;5050378;28;19943;-60
2021/12/14 06:37:52;;;;;;;37.28;22.20;;;;;;;2.52;63.77;102415.50;5036185;28;20057;-56
2021/12/14 06:40:16;;;;;;;35.97;19.48;;;;;;;2.47;63.79;102401.66;5039768;28;20041;-57
2021/12/14 06:42:50;;;;;;;33.10;18.17;;;;;;;2.43;63.96;102403.34;5036912;28;20096;-58
2021/12/14 06:45:30;;;;;;;34.95;19.33;;;;;;;2.40;64.12;102411.09;5038120;28;20582;-58
2021/12/14 06:48:04;;;;;;;30.60;18.33;;;;;;;2.36;64.04;102411.94;5034734;28;20560;-58
2021/12/14 06:50:44;;;;;;;28.27;17.98;;;;;;;2.37;63.89;102411.94;5030705;28;20502;-66
2021/12/14 06:53:14;;;;;;;34.38;19.35;;;;;;;2.35;63.87;102418.88;5033479;28;20924;-57
2021/12/14 06:55:41;;;;;;;31.60;17.60;;;;;;;2.39;63.59;102422.34;5033528;28;20045;-58
2021/12/14 06:58:20;;;;;;;34.50;18.38;;;;;;;2.42;63.60;102418.00;5034474;28;20045;-58
2021/12/14 07:00:57;;;;;;;34.35;17.75;;;;;;;2.41;63.77;102424.09;5032033;28;20044;-67
2021/12/14 07:03:41;;;;;;;35.08;18.00;;;;;;;2.40;63.95;102427.53;5030918;28;20881;-58
2021/12/14 07:06:10;;;;;;;35.80;17.77;;;;;;;2.42;63.96;102423.19;5030287;28;20091;-58
2021/12/14 07:10:59;;;;;;;33.85;17.50;;;;;;;2.51;63.68;102424.97;5049100;28;20398;-58
2021/12/14 07:13:35;;;;;;;28.27;18.05;;;;;;;2.56;63.85;102415.47;5043153;28;20064;-58
2021/12/14 07:16:03;;;;;;;;;;;;;;;2.61;63.79;102424.13;5043052;28;20110;-58
2021/12/14 07:18:32;;;;;;;31.20;18.35;;;;;;;2.74;63.33;102413.81;5044520;28;19921;-59
2021/12/14 07:20:59;;;;;;;33.15;18.42;;;;;;;2.85;63.26;102412.13;5044787;28;20049;-59
2021/12/14 07:23:31;;;;;;;30.23;19.42;;;;;;;2.99;63.14;102419.09;5037596;28;20485;-57
2021/12/14 07:26:04;;;;;;;29.42;17.92;;;;;;;3.08;62.87;102406.13;5039388;28;20490;-59
2021/12/14 07:28:37;;;;;;;33.92;18.58;;;;;;;3.16;62.96;102400.94;5044141;28;20175;-58
2021/12/14 07:31:16;;;;;;;33.10;18.85;;;;;;;3.24;62.84;102405.28;5044353;28;20056;-67
2021/12/14 07:33:49;;;;;;;40.10;20.98;;;;;;;3.25;63.02;102408.72;5041971;28;20079;-60
2021/12/14 07:36:29;;;;;;;36.53;20.77;;;;;;;3.26;63.07;102413.06;5044745;28;20490;-57
2021/12/14 07:38:59;;;;;;;35.35;18.88;;;;;;;3.27;63.02;102407.88;5044239;28;20098;-57
2021/12/14 07:41:35;;;;;;;31.90;18.58;;;;;;;3.29;63.03;102417.38;5034474;28;20050;-58
2021/12/14 07:44:20;;;;;;;32.75;19.80;;;;;;;3.32;62.94;102412.22;5028127;28;20049;-57
2021/12/14 07:47:14;;;;;;;36.80;21.15;;;;;;;3.37;63.08;102419.13;5043730;28;20041;-58
2021/12/14 07:49:44;;;;;;;;;;;;;;;3.39;62.82;102420.00;5040003;28;20144;-62
2021/12/14 07:52:17;;;;;;;29.95;18.33;;;;;;;3.49;62.64;102430.38;5042305;28;19921;-58
2021/12/14 07:54:52;;;;;;;32.42;20.45;;;;;;;3.54;62.65;102441.63;5044015;28;20592;-58
2021/12/14 07:57:26;;;;;;;41.40;23.27;;;;;;;3.58;62.64;102438.16;5044265;28;20041;-57
2021/12/14 07:59:55;;;;;;;38.25;22.30;;;;;;;3.54;62.70;102432.13;5044190;28;20092;-57
2021/12/14 08:02:30;;;;;;;30.85;20.48;;;;;;;3.55;62.78;102443.38;5041723;28;20045;-57
2021/12/14 08:05:11;;;;;;;35.15;20.83;;;;;;;3.62;62.92;102449.41;5043009;28;20052;-57
2021/12/14 08:07:43;;;;;;;38.70;20.67;;;;;;;3.72;62.64;102446.81;5043870;28;20556;-57
2021/12/14 08:10:15;;;;;;;38.47;19.95;;;;;;;3.86;62.49;102449.41;5043679;28;20049;-57
2021/12/14 08:12:50;;;;;;;37.33;24.13;;;;;;;4.08;61.98;102451.97;5043829;28;20045;-57
2021/12/14 08:15:19;;;;;;;49.55;29.63;;;;;;;4.33;61.55;102450.19;5044112;28;20049;-59
2021/12/14 08:18:05;;;;;;;37.85;24.35;;;;;;;4.64;61.01;102446.63;5041434;28;20563;-59
2021/12/14 08:20:34;;;;;;;46.53;28.95;;;;;;;4.89;60.57;102437.81;5038828;28;20099;-59
2021/12/14 08:23:27;;;;;;;36.92;24.10;;;;;;;5.20;60.03;102435.00;5027999;28;20444;-61
2021/12/14 08:26:18;;;;;;;38.90;23.95;;;;;;;5.57;59.24;102423.47;5026990;28;20045;-60
2021/12/14 08:28:51;;;;;;;39.13;23.92;;;;;;;5.82;58.69;102420.66;5030001;28;20568;-61
2021/12/14 08:31:20;;;;;;;67.88;36.45;;;;;;;6.09;58.19;102416.91;5030366;28;20111;-61
2021/12/14 08:34:03;;;;;;;58.60;31.23;;;;;;;6.32;57.64;102421.00;5029955;28;20401;-61
2021/12/14 08:36:34;;;;;;;45.33;28.23;;;;;;;6.48;57.48;102417.34;5028834;28;20045;-61
2021/12/14 08:39:07;;;;;;;42.92;26.08;;;;;;;6.70;57.30;102411.84;5028213;28;20103;-62
2021/12/14 08:41:34;;;;;;;43.42;27.35;;;;;;;6.93;56.73;102410.66;5030019;28;20465;-62
2021/12/14 08:44:09;;;;;;;39.88;26.55;;;;;;;7.01;56.71;102407.06;5029725;28;20099;-61
2021/12/14 08:46:37;;;;;;;38.33;26.80;;;;;;;7.22;56.52;102409.38;5030116;28;20548;-61
2021/12/14 08:49:06;;;;;;;43.95;27.95;;;;;;;7.36;56.06;102415.22;5028886;28;20045;-61
2021/12/14 08:51:42;;;;;;;41.95;26.73;;;;;;;7.55;55.96;102425.38;5030096;28;20449;-61
2021/12/14 08:54:12;;;;;;;;;;;;;;;7.68;55.57;102429.50;5028473;28;20056;-61
2021/12/14 08:56:54;;;;;;;64.82;37.40;;;;;;;7.84;55.16;102424.88;5028807;28;19929;-59
2021/12/14 08:59:21;;;;;;;88.15;48.13;;;;;;;7.98;55.10;102429.84;5024794;28;20077;-59
2021/12/14 09:01:49;;;;;;;72.20;45.92;;;;;;;8.09;54.90;102427.03;5029607;28;20068;-59
2021/12/14 09:04:21;;;;;;;59.88;37.00;;;;;;;8.25;54.59;102432.81;5028314;28;20115;-71
2021/12/14 09:06:53;;;;;;;51.03;33.63;;;;;;;8.41;54.27;102433.41;5029527;28;20041;-65
2021/12/14 09:09:23;;;;;;;45.80;31.45;;;;;;;8.58;53.88;102422.59;5029435;28;20564;-63
2021/12/14 09:12:09;;;;;;;44.60;29.25;;;;;;;8.77;53.64;102425.69;5027270;28;20045;-59
2021/12/14 09:14:37;;;;;;;39.58;28.08;;;;;;;8.94;53.45;102415.69;5029066;28;20449;-59
2021/12/14 09:17:08;;;;;;;41.20;28.38;;;;;;;9.08;53.13;102423.25;5019857;28;20046;-59
2021/12/14 09:19:49;;;;;;;45.47;29.42;;;;;;;9.26;52.75;102418.47;5021507;28;20042;-59
2021/12/14 09:22:26;;;;;;;49.88;30.48;;;;;;;9.43;52.43;102429.41;5027163;28;20099;-59
2021/12/14 09:24:55;;;;;;;47.60;32.55;;;;;;;9.55;52.14;102433.47;5025373;28;20378;-62
2021/12/14 09:27:25;;;;;;;52.42;34.92;;;;;;;9.64;52.09;102429.75;5028788;28;20108;-59
2021/12/14 09:29:53;;;;;;;59.95;39.45;;;;;;;9.74;52.03;102440.88;5028859;28;20107;-59
2021/12/14 09:32:26;;;;;;;48.22;35.33;;;;;;;9.81;51.96;102431.94;5027698;28;20084;-60
2021/12/14 09:34:55;;;;;;;48.35;31.35;;;;;;;9.94;51.63;102437.72;5028986;28;20053;-59
2021/12/14 09:37:23;;;;;;;47.95;33.47;;;;;;;10.05;51.39;102435.66;5029768;28;20042;-59
2021/12/14 09:39:55;;;;;;;45.70;30.73;;;;;;;10.24;50.97;102427.28;5018164;28;20054;-60
2021/12/14 09:42:26;;;;;;;40.42;27.25;;;;;;;10.40;50.63;102425.13;5012818;28;20046;-60
2021/12/14 09:44:55;;;;;;;44.22;28.42;;;;;;;10.48;50.56;102423.13;5011014;28;20042;-59
2021/12/14 09:47:26;;;;;;;40.92;27.58;;;;;;;10.59;50.20;102410.56;5012671;28;20499;-59
2021/12/14 09:49:53;;;;;;;41.47;30.00;;;;;;;10.68;49.96;102419.94;5011008;28;20050;-60
2021/12/14 09:52:31;;;;;;;46.42;29.98;;;;;;;10.78;50.06;102421.38;5011163;28;20045;-60
2021/12/14 09:55:07;;;;;;;40.95;28.63;;;;;;;10.88;49.80;102421.94;5012165;28;20104;-60
2021/12/14 09:57:42;;;;;;;38.78;26.27;;;;;;;11.05;49.50;102418.78;5012565;28;20057;-59
2021/12/14 10:00:18;;;;;;;38.17;25.58;;;;;;;11.11;49.61;102418.59;5010787;28;20108;-60
2021/12/14 10:02:46;;;;;;;44.65;26.92;;;;;;;11.23;49.40;102416.47;5012443;28;20053;-59
2021/12/14 10:05:37;;;;;;;40.22;27.67;;;;;;;11.33;49.19;102407.38;5010740;28;20045;-59
2021/12/14 10:08:27;;;;;;;42.13;29.38;;;;;;;11.48;48.92;102408.66;5023010;28;20488;-59
2021/12/14 10:11:04;;;;;;;43.67;29.50;;;;;;;11.32;49.26;102402.19;5028149;28;21628;-59
2021/12/14 10:13:40;;;;;;;59.22;38.63;;;;;;;11.36;49.11;102399.38;5028127;28;20068;-59
2021/12/14 10:16:07;;;;;;;66.95;40.45;;;;;;;11.44;48.98;102407.03;5028088;28;20049;-61
2021/12/14 10:18:38;;;;;;;49.53;33.35;;;;;;;11.55;48.95;102399.66;5028035;28;20041;-61
2021/12/14 10:21:09;;;;;;;61.40;41.20;;;;;;;11.21;49.56;102398.13;5028464;28;20053;-61
2021/12/14 10:23:40;;;;;;;45.20;35.05;;;;;;;10.83;50.88;102397.59;5025296;28;20521;-61
2021/12/14 10:26:08;;;;;;;44.80;32.97;;;;;;;10.47;51.70;102403.03;5027007;28;20063;-59
2021/12/14 10:28:37;;;;;;;45.88;32.97;;;;;;;10.18;52.33;102398.59;5026580;28;20091;-59
2021/12/14 10:31:09;;;;;;;43.53;32.63;;;;;;;10.21;51.91;102381.00;5028568;28;20057;-58
2021/12/14 10:33:39;;;;;;;44.67;32.50;;;;;;;9.99;52.40;102377.28;5027547;28;20088;-59
2021/12/14 10:36:18;;;;;;;45.67;32.40;;;;;;;10.04;52.26;102378.00;5028071;28;20049;-59
2021/12/14 10:39:06;;;;;;;47.53;31.70;;;;;;;10.11;51.92;102375.16;5018466;28;20060;-61
2021/12/14 10:44:22;;;;;;;46.05;32.13;;;;;;;10.43;51.24;102383.03;5016561;28;20053;-60
2021/12/14 10:46:52;;;;;;;56.83;39.45;;;;;;;10.68;50.76;102377.03;5027254;28;20041;-60
2021/12/14 10:49:24;;;;;;;51.03;36.03;;;;;;;10.73;50.51;102377.78;5027964;28;20116;-59
2021/12/14 10:51:55;;;;;;;101.03;67.65;;;;;;;10.85;50.31;102380.00;5027367;28;20057;-58
2021/12/14 10:54:22;;;;;;;51.85;33.00;;;;;;;10.56;51.10;102375.66;5015616;28;20572;-59
2021/12/14 10:56:54;;;;;;;51.65;33.55;;;;;;;10.32;51.77;102374.59;5027635;28;20054;-59
2021/12/14 10:59:24;;;;;;;44.42;32.10;;;;;;;10.05;52.58;102374.50;5027237;28;20064;-58
2021/12/14 11:01:52;;;;;;;44.28;32.47;;;;;;;9.89;52.98;102369.69;5022896;28;20565;-59
2021/12/14 11:04:52;;;;;;;;;;;;;;;;;;;;;
2021/12/14 11:07:39;;;;;;;45.97;31.75;;;;;;;9.71;53.54;102364.91;5022471;28;20045;-58
2021/12/14 11:10:12;;;;;;;45.47;32.17;;;;;;;9.63;53.80;102360.72;5019563;28;20041;-59
2021/12/14 11:12:42;;;;;;;110.97;58.20;;;;;;;9.57;53.93;102353.06;5025493;28;20041;-58
2021/12/14 11:15:20;;;;;;;55.03;35.47;;;;;;;9.52;54.11;102354.91;5027456;28;20111;-61
2021/12/14 11:18:09;;;;;;;50.90;34.03;;;;;;;9.36;54.49;102348.34;5025224;28;20099;-58
2021/12/14 11:20:50;;;;;;;49.03;32.95;;;;;;;9.35;54.59;102352.75;5027582;28;20041;-58
2021/12/14 11:23:17;;;;;;;48.45;33.85;;;;;;;9.28;54.85;102356.41;5026197;28;20099;-57
2021/12/14 11:25:51;;;;;;;160.75;101.00;;;;;;;9.28;54.92;102349.44;5018748;28;20078;-59
2021/12/14 11:28:38;;;;;;;52.75;39.35;;;;;;;9.48;54.67;102342.78;5021585;28;20046;-58
2021/12/14 11:31:13;;;;;;;46.95;33.63;;;;;;;9.38;55.04;102341.31;5015545;28;20054;-59
2021/12/14 11:33:45;;;;;;;44.63;31.33;;;;;;;9.36;55.14;102328.28;5022119;28;20053;-63
2021/12/14 11:36:32;;;;;;;46.15;32.90;;;;;;;9.31;55.40;102325.75;5026825;28;20050;-59
2021/12/14 11:39:25;;;;;;;46.25;32.72;;;;;;;9.31;55.50;102332.78;5027066;28;20045;-60
2021/12/14 11:41:59;;;;;;;77.00;46.10;;;;;;;9.22;55.96;102332.97;5013832;28;20057;-59
2021/12/14 11:44:33;;;;;;;48.58;34.85;;;;;;;9.14;55.96;102326.19;5028574;28;20054;-59
2021/12/14 11:50:21;;;;;;;46.22;33.15;;;;;;;9.08;56.33;102326.34;5028042;28;20053;-58
2021/12/14 11:53:00;;;;;;;49.88;34.33;;;;;;;9.30;56.01;102321.41;5011499;28;20050;-68
2021/12/14 11:55:38;;;;;;;50.00;34.17;;;;;;;9.19;56.09;102322.59;5024528;28;20068;-59
2021/12/14 11:58:11;;;;;;;50.95;34.88;;;;;;;9.19;56.27;102325.22;5031040;28;20057;-61
2021/12/14 12:01:03;;;;;;;49.58;33.10;;;;;;;9.10;56.76;102319.31;5030756;28;20049;-59
2021/12/14 12:03:30;;;;;;;46.88;33.22;;;;;;;9.14;56.77;102317.47;5025265;28;20053;-59
2021/12/14 12:06:13;;;;;;;59.60;35.92;;;;;;;9.17;56.75;102312.16;5031109;28;20064;-59
2021/12/14 12:11:38;;;;;;;30.85;19.40;;;;;;;9.54;56.51;102305.94;5027020;28;20111;-58
2021/12/14 12:14:25;;;;;;;47.67;30.38;;;;;;;9.48;57.12;102295.63;5024098;28;20050;-61
2021/12/14 12:16:57;;;;;;;44.65;31.08;;;;;;;9.41;57.31;102305.44;5024593;28;21340;-60
2021/12/14 12:19:29;;;;;;;51.00;32.53;;;;;;;9.35;57.39;102302.97;5015475;28;20103;-60
2021/12/14 12:22:06;;;;;;;50.10;31.80;;;;;;;9.30;57.35;102292.59;5020065;28;20053;-61
2021/12/14 12:24:56;;;;;;;50.28;31.90;;;;;;;9.25;57.47;102289.22;5026743;28;20482;-61
2021/12/14 12:27:26;;;;;;;60.50;37.17;;;;;;;9.24;57.39;102279.69;5018690;28;20104;-60